createdAt,value
2023-09-27T00:00:39.175Z,100.00
2023-09-27T00:03:44.766Z,100.00
2023-09-27T00:06:50.322Z,100.00
2023-09-27T00:09:54.451Z,100.00
2023-09-27T00:12:57.840Z,100.00
2023-09-27T00:16:01.681Z,100.00
2023-09-27T00:19:06.588Z,100.00
2023-09-27T00:22:11.242Z,100.00
2023-09-27T00:25:15.873Z,100.00
2023-09-27T00:28:19.627Z,100.00
2023-09-27T00:31:26.426Z,100.00
2023-09-27T00:34:30.250Z,100.00
2023-09-27T00:37:34.786Z,100.00
2023-09-27T00:40:48.661Z,100.00
2023-09-27T00:43:52.311Z,100.00
2023-09-27T00:46:56.157Z,100.00
2023-09-27T00:49:59.624Z,100.00
2023-09-27T00:53:03.724Z,100.00
2023-09-27T00:56:10.065Z,100.00
2023-09-27T00:59:13.951Z,100.00
2023-09-27T01:02:18.247Z,100.00
2023-09-27T01:05:22.396Z,100.00
2023-09-27T01:08:26.202Z,100.00
2023-09-27T01:11:30.797Z,100.00
2023-09-27T01:14:35.351Z,100.00
2023-09-27T01:18:02.596Z,100.00
2023-09-27T01:21:07.309Z,100.00
2023-09-27T01:24:13.975Z,100.00
2023-09-27T01:27:19.653Z,100.00
2023-09-27T01:30:23.970Z,100.00
2023-09-27T01:33:28.979Z,100.00
2023-09-27T01:36:33.937Z,100.00
2023-09-27T01:39:37.498Z,100.00
2023-09-27T01:42:44.924Z,100.00
2023-09-27T01:45:48.244Z,100.00
2023-09-27T01:48:53.263Z,100.00
2023-09-27T01:51:58.080Z,100.00
2023-09-27T01:55:02.067Z,100.00
2023-09-27T01:58:05.697Z,100.00
2023-09-27T02:01:09.585Z,100.00
2023-09-27T02:04:15.740Z,100.00
2023-09-27T02:07:19.564Z,100.00
2023-09-27T02:10:24.065Z,100.00
2023-09-27T02:13:27.212Z,100.00
2023-09-27T02:16:33.019Z,100.00
2023-09-27T02:19:36.918Z,100.00
2023-09-27T02:22:42.188Z,100.00
2023-09-27T02:25:46.221Z,100.00
2023-09-27T02:28:49.555Z,100.00
2023-09-27T02:31:53.798Z,100.00
2023-09-27T02:34:57.278Z,100.00
2023-09-27T02:38:00.743Z,100.00
2023-09-27T02:41:05.595Z,100.00
2023-09-27T02:44:09.406Z,100.00
2023-09-27T02:47:12.851Z,100.00
2023-09-27T02:50:18.009Z,100.00
2023-09-27T02:53:21.710Z,100.00
2023-09-27T02:56:25.402Z,100.00
2023-09-27T02:59:30.690Z,100.00
2023-09-27T03:02:35.132Z,100.00
2023-09-27T03:05:40.053Z,100.00
2023-09-27T03:08:44.446Z,100.00
2023-09-27T03:11:48.016Z,100.00
2023-09-27T03:14:52.090Z,100.00
2023-09-27T03:17:55.436Z,100.00
2023-09-27T03:21:00.460Z,100.00
2023-09-27T03:24:04.422Z,100.00
2023-09-27T03:27:09.981Z,100.00
2023-09-27T03:30:14.179Z,100.00
2023-09-27T03:33:17.840Z,100.00
2023-09-27T03:36:21.350Z,100.00
2023-09-27T03:39:25.126Z,100.00
2023-09-27T03:42:28.567Z,100.00
2023-09-27T03:45:34.625Z,100.00
2023-09-27T03:48:38.136Z,100.00
2023-09-27T03:51:41.908Z,100.00
2023-09-27T03:54:45.491Z,100.00
2023-09-27T03:57:49.293Z,100.00
2023-09-27T04:00:53.469Z,100.00
2023-09-27T04:04:02.202Z,100.00
2023-09-27T04:07:05.356Z,100.00
2023-09-27T04:10:10.731Z,100.00
2023-09-27T04:13:15.292Z,100.00
2023-09-27T04:16:20.558Z,100.00
2023-09-27T04:19:23.814Z,100.00
2023-09-27T04:22:28.697Z,100.00
2023-09-27T04:25:32.126Z,100.00
2023-09-27T04:28:45.665Z,100.00
2023-09-27T04:31:53.475Z,100.00
2023-09-27T04:34:59.983Z,100.00
2023-09-27T04:38:05.672Z,100.00
2023-09-27T04:41:10.329Z,100.00
2023-09-27T04:44:15.204Z,100.00
2023-09-27T04:47:18.678Z,100.00
2023-09-27T04:50:22.753Z,100.00
2023-09-27T04:53:27.183Z,100.00
2023-09-27T04:56:33.531Z,100.00
2023-09-27T04:59:38.965Z,100.00
2023-09-27T05:02:42.550Z,100.00
2023-09-27T05:05:46.963Z,100.00
2023-09-27T05:08:51.590Z,100.00
2023-09-27T05:11:55.169Z,100.00
2023-09-27T05:14:59.857Z,100.00
2023-09-27T05:18:03.207Z,100.00
2023-09-27T05:21:09.646Z,100.00
2023-09-27T05:24:13.176Z,100.00
2023-09-27T05:27:18.741Z,100.00
2023-09-27T05:30:22.770Z,100.00
2023-09-27T05:33:26.271Z,100.00
2023-09-27T05:36:29.803Z,100.00
2023-09-27T05:39:33.410Z,100.00
2023-09-27T05:42:36.983Z,100.00
2023-09-27T05:45:40.328Z,100.00
2023-09-27T05:48:44.059Z,100.00
2023-09-27T05:51:48.492Z,100.00
2023-09-27T05:54:53.621Z,100.00
2023-09-27T05:57:57.078Z,100.00
2023-09-27T06:01:06.379Z,100.00
2023-09-27T06:04:11.945Z,100.00
2023-09-27T06:07:18.570Z,100.00
2023-09-27T06:10:23.516Z,100.00
2023-09-27T06:13:28.482Z,100.00
2023-09-27T06:16:32.967Z,100.00
2023-09-27T06:19:36.516Z,100.00
2023-09-27T06:22:41.820Z,100.00
2023-09-27T06:25:47.501Z,100.00
2023-09-27T06:28:52.078Z,100.00
2023-09-27T06:31:58.128Z,100.00
2023-09-27T06:35:23.596Z,100.00
2023-09-27T06:38:27.165Z,100.00
2023-09-27T06:41:32.554Z,100.00
2023-09-27T06:44:42.064Z,100.00
2023-09-27T06:47:47.321Z,100.00
2023-09-27T06:50:51.124Z,100.00
2023-09-27T06:53:57.103Z,100.00
2023-09-27T06:57:00.725Z,100.00
2023-09-27T07:00:09.875Z,96.73
2023-09-27T07:03:13.378Z,95.15
2023-09-27T07:06:17.439Z,85.19
2023-09-27T07:09:22.144Z,91.22
2023-09-27T07:12:25.575Z,87.71
2023-09-27T07:15:28.793Z,84.95
2023-09-27T07:18:32.550Z,80.28
2023-09-27T07:21:36.170Z,85.36
2023-09-27T07:24:40.010Z,82.44
2023-09-27T07:27:44.676Z,81.23
2023-09-27T07:30:48.738Z,76.05
2023-09-27T07:33:53.917Z,78.55
2023-09-27T07:37:00.160Z,77.89
2023-09-27T07:40:12.012Z,72.58
2023-09-27T07:43:16.853Z,74.47
2023-09-27T07:46:20.709Z,72.60
2023-09-27T07:49:24.371Z,68.52
2023-09-27T07:52:30.843Z,68.68
2023-09-27T07:55:44.486Z,65.64
2023-09-27T07:58:53.203Z,65.70
2023-09-27T08:01:57.248Z,64.53
2023-09-27T08:05:00.724Z,61.79
2023-09-27T08:08:04.314Z,61.47
2023-09-27T08:11:07.711Z,57.77
2023-09-27T08:14:13.355Z,56.58
2023-09-27T08:17:17.335Z,58.70
2023-09-27T08:20:20.470Z,57.98
2023-09-27T08:23:24.434Z,57.90
2023-09-27T08:26:27.733Z,57.44
2023-09-27T08:29:32.347Z,54.31
2023-09-27T08:32:37.147Z,55.89
2023-09-27T08:35:41.786Z,56.23
2023-09-27T08:38:45.247Z,56.54
2023-09-27T08:41:49.026Z,54.57
2023-09-27T08:44:55.938Z,53.93
2023-09-27T08:47:59.938Z,52.97
2023-09-27T08:51:06.411Z,52.71
2023-09-27T08:54:10.647Z,50.98
2023-09-27T08:57:14.670Z,51.09
2023-09-27T09:00:27.944Z,51.97
2023-09-27T09:03:34.109Z,52.07
2023-09-27T09:06:40.230Z,50.90
2023-09-27T09:09:48.190Z,51.32
2023-09-27T09:12:54.344Z,49.21
2023-09-27T09:15:59.455Z,47.56
2023-09-27T09:19:37.535Z,47.82
2023-09-27T09:22:47.373Z,44.88
2023-09-27T09:25:51.414Z,45.30
2023-09-27T09:28:57.949Z,46.34
2023-09-27T09:32:09.963Z,46.82
2023-09-27T09:35:13.923Z,45.48
2023-09-27T09:38:30.672Z,45.81
2023-09-27T09:41:54.950Z,44.27
2023-09-27T09:45:11.382Z,43.56
2023-09-27T09:48:15.131Z,43.35
2023-09-27T09:51:25.426Z,45.04
2023-09-27T09:54:37.696Z,45.40
2023-09-27T09:57:53.138Z,45.42
2023-09-27T10:00:59.824Z,44.52
2023-09-27T10:04:05.899Z,44.69
2023-09-27T10:07:09.635Z,44.96
2023-09-27T10:10:16.321Z,42.55
2023-09-27T10:13:20.038Z,42.63
2023-09-27T10:16:25.661Z,42.87
2023-09-27T10:19:30.470Z,43.17
2023-09-27T10:22:34.135Z,43.52
2023-09-27T10:25:37.693Z,44.23
2023-09-27T10:29:05.705Z,43.02
2023-09-27T10:32:18.640Z,41.68
2023-09-27T10:35:23.939Z,42.05
2023-09-27T10:38:50.151Z,41.39
2023-09-27T10:41:54.947Z,41.04
2023-09-27T10:45:01.743Z,41.81
2023-09-27T10:48:20.229Z,41.54
2023-09-27T10:51:27.073Z,40.92
2023-09-27T10:54:32.705Z,40.37
2023-09-27T10:57:36.137Z,41.42
2023-09-27T11:00:57.772Z,39.80
2023-09-27T11:04:05.347Z,41.90
2023-09-27T11:07:09.252Z,41.26
2023-09-27T11:10:12.960Z,39.90
2023-09-27T11:13:16.550Z,39.05
2023-09-27T11:16:19.881Z,40.31
2023-09-27T11:19:32.926Z,39.01
2023-09-27T11:22:36.573Z,39.03
2023-09-27T11:25:43.072Z,37.96
2023-09-27T11:28:56.818Z,38.79
2023-09-27T11:32:00.236Z,38.61
2023-09-27T11:35:05.585Z,38.03
2023-09-27T11:38:13.610Z,36.28
2023-09-27T11:41:18.725Z,37.53
2023-09-27T11:44:27.466Z,36.79
2023-09-27T11:47:33.827Z,36.70
2023-09-27T11:50:38.562Z,37.11
2023-09-27T11:53:43.075Z,37.90
2023-09-27T11:56:48.325Z,36.99
2023-09-27T11:59:52.281Z,36.29
2023-09-27T12:02:57.629Z,36.38
2023-09-27T12:06:04.365Z,37.22
2023-09-27T12:09:09.633Z,37.02
2023-09-27T12:12:13.636Z,36.94
2023-09-27T12:15:17.175Z,36.60
2023-09-27T12:18:22.149Z,37.00
2023-09-27T12:21:25.401Z,36.46
2023-09-27T12:24:29.025Z,37.82
2023-09-27T12:27:32.597Z,37.71
2023-09-27T12:30:36.337Z,36.40
2023-09-27T12:33:39.705Z,37.18
2023-09-27T12:36:46.000Z,35.97
2023-09-27T12:39:49.117Z,37.14
2023-09-27T12:42:52.927Z,37.42
2023-09-27T12:45:56.383Z,36.60
2023-09-27T12:49:00.941Z,37.10
2023-09-27T12:52:04.523Z,36.88
2023-09-27T12:55:09.997Z,36.74
2023-09-27T12:58:14.995Z,36.80
2023-09-27T13:01:19.769Z,37.84
2023-09-27T13:04:23.436Z,37.17
2023-09-27T13:07:31.210Z,37.60
2023-09-27T13:10:38.405Z,36.50
2023-09-27T13:13:42.477Z,37.30
2023-09-27T13:16:47.588Z,36.84
2023-09-27T13:19:55.139Z,38.63
2023-09-27T13:23:10.002Z,39.41
2023-09-27T13:26:14.044Z,38.77
2023-09-27T13:29:19.798Z,38.98
2023-09-27T13:32:25.125Z,37.62
2023-09-27T13:35:28.483Z,38.13
2023-09-27T13:38:34.572Z,40.05
2023-09-27T13:41:45.257Z,37.59
2023-09-27T13:44:49.597Z,35.65
2023-09-27T13:47:53.040Z,37.38
2023-09-27T13:51:05.543Z,37.44
2023-09-27T13:54:09.622Z,37.82
2023-09-27T13:57:12.968Z,38.35
2023-09-27T14:00:17.148Z,38.38
2023-09-27T14:03:21.105Z,38.57
2023-09-27T14:06:24.364Z,37.88
2023-09-27T14:09:28.057Z,38.34
2023-09-27T14:12:31.381Z,39.24
2023-09-27T14:15:35.876Z,39.60
2023-09-27T14:18:42.285Z,38.26
2023-09-27T14:21:46.390Z,38.50
2023-09-27T14:24:49.614Z,39.93
2023-09-27T14:27:53.995Z,39.48
2023-09-27T14:30:57.707Z,39.12
2023-09-27T14:34:03.328Z,39.46
2023-09-27T14:37:08.382Z,39.69
2023-09-27T14:40:13.922Z,39.81
2023-09-27T14:43:17.810Z,39.71
2023-09-27T14:46:21.606Z,40.57
2023-09-27T14:49:25.139Z,40.36
2023-09-27T14:52:28.883Z,36.87
2023-09-27T14:55:32.415Z,38.38
2023-09-27T14:58:36.404Z,39.00
2023-09-27T15:01:40.014Z,39.06
2023-09-27T15:04:43.879Z,38.76
2023-09-27T15:07:48.021Z,39.65
2023-09-27T15:10:51.405Z,39.47
2023-09-27T15:13:57.500Z,40.98
2023-09-27T15:17:00.945Z,40.82
2023-09-27T15:20:06.601Z,40.68
2023-09-27T15:23:10.061Z,41.49
2023-09-27T15:26:13.607Z,42.29
2023-09-27T15:29:17.046Z,42.88
2023-09-27T15:32:20.789Z,41.73
2023-09-27T15:35:26.679Z,42.38
2023-09-27T15:38:29.940Z,42.62
2023-09-27T15:41:33.356Z,44.30
2023-09-27T15:44:41.152Z,44.21
2023-09-27T15:47:44.795Z,44.75
2023-09-27T15:50:47.997Z,45.16
2023-09-27T15:54:03.313Z,46.42
2023-09-27T15:57:10.498Z,46.74
2023-09-27T16:00:15.149Z,49.71
2023-09-27T16:03:19.172Z,53.04
2023-09-27T16:06:22.276Z,55.10
2023-09-27T16:09:25.614Z,56.83
2023-09-27T16:12:29.277Z,58.28
2023-09-27T16:15:32.712Z,60.05
2023-09-27T16:18:36.284Z,62.21
2023-09-27T16:21:41.427Z,63.68
2023-09-27T16:24:45.820Z,66.15
2023-09-27T16:27:49.683Z,66.18
2023-09-27T16:30:53.000Z,69.46
2023-09-27T16:34:00.313Z,70.31
2023-09-27T16:37:04.723Z,70.15
2023-09-27T16:40:09.460Z,69.78
2023-09-27T16:43:13.260Z,70.52
2023-09-27T16:46:16.678Z,72.66
2023-09-27T16:49:20.078Z,73.88
2023-09-27T16:52:23.930Z,75.19
2023-09-27T16:55:27.466Z,77.27
2023-09-27T16:58:33.322Z,79.79
2023-09-27T17:01:37.755Z,81.46
2023-09-27T17:04:43.085Z,83.08
2023-09-27T17:07:47.935Z,83.18
2023-09-27T17:10:53.687Z,86.86
2023-09-27T17:13:59.227Z,88.30
2023-09-27T17:17:05.436Z,92.45
2023-09-27T17:20:10.959Z,92.80
2023-09-27T17:23:17.657Z,94.69
2023-09-27T17:26:23.589Z,98.16
2023-09-27T17:29:28.329Z,100.00
2023-09-27T17:32:33.581Z,100.00
2023-09-27T17:35:39.947Z,100.00
2023-09-27T17:38:45.585Z,100.00
2023-09-27T17:41:52.047Z,100.00
2023-09-27T17:44:57.494Z,100.00
2023-09-27T17:48:05.125Z,100.00
2023-09-27T17:51:13.859Z,100.00
2023-09-27T17:54:21.306Z,100.00
2023-09-27T17:57:29.645Z,100.00
2023-09-27T18:00:39.341Z,100.00
2023-09-27T18:03:46.986Z,100.00
2023-09-27T18:06:54.350Z,100.00
2023-09-27T18:10:01.426Z,100.00
2023-09-27T18:13:08.666Z,100.00
2023-09-27T18:16:19.321Z,100.00
2023-09-27T18:19:26.292Z,100.00
2023-09-27T18:22:34.425Z,100.00
2023-09-27T18:25:40.612Z,100.00
2023-09-27T18:28:46.345Z,100.00
2023-09-27T18:31:53.545Z,100.00
2023-09-27T18:35:02.710Z,100.00
2023-09-27T18:38:12.312Z,100.00
2023-09-27T18:41:17.776Z,100.00
2023-09-27T18:44:25.504Z,100.00
2023-09-27T18:47:32.910Z,100.00
2023-09-27T18:50:41.669Z,100.00
2023-09-27T18:53:49.520Z,100.00
2023-09-27T18:56:57.727Z,100.00
2023-09-27T19:00:07.477Z,100.00
2023-09-27T19:03:15.836Z,100.00
2023-09-27T19:06:35.800Z,100.00
2023-09-27T19:09:43.039Z,100.00
2023-09-27T19:12:51.655Z,100.00
2023-09-27T19:15:58.830Z,100.00
2023-09-27T19:19:05.753Z,100.00
2023-09-27T19:22:12.792Z,100.00
2023-09-27T19:25:21.923Z,100.00
2023-09-27T19:28:27.783Z,100.00
2023-09-27T19:31:35.455Z,100.00
2023-09-27T19:34:48.972Z,100.00
2023-09-27T19:38:01.250Z,100.00
2023-09-27T19:41:25.999Z,100.00
2023-09-27T19:44:37.590Z,100.00
2023-09-27T19:47:45.803Z,100.00
2023-09-27T19:50:52.037Z,100.00
2023-09-27T19:54:05.129Z,100.00
2023-09-27T19:57:12.849Z,100.00
2023-09-27T20:00:20.040Z,100.00
2023-09-27T20:03:27.146Z,100.00
2023-09-27T20:06:45.224Z,100.00
2023-09-27T20:09:52.573Z,100.00
2023-09-27T20:13:04.950Z,100.00
2023-09-27T20:16:14.793Z,100.00
2023-09-27T20:19:27.164Z,100.00
2023-09-27T20:22:34.873Z,100.00
2023-09-27T20:25:46.609Z,100.00
2023-09-27T20:28:53.263Z,100.00
2023-09-27T20:31:57.826Z,100.00
2023-09-27T20:35:09.562Z,100.00
2023-09-27T20:38:18.812Z,100.00
2023-09-27T20:41:27.958Z,100.00
2023-09-27T20:44:40.649Z,100.00
2023-09-27T20:47:53.882Z,100.00
2023-09-27T20:51:04.160Z,100.00
2023-09-27T20:54:17.973Z,100.00
2023-09-27T20:57:23.898Z,100.00
2023-09-27T21:00:31.664Z,100.00
2023-09-27T21:03:45.175Z,100.00
2023-09-27T21:06:51.343Z,100.00
2023-09-27T21:09:58.320Z,100.00
2023-09-27T21:13:08.450Z,100.00
2023-09-27T21:16:11.961Z,100.00
2023-09-27T21:19:16.671Z,100.00
2023-09-27T21:22:29.770Z,100.00
2023-09-27T21:25:41.105Z,100.00
2023-09-27T21:28:45.244Z,100.00
2023-09-27T21:31:52.579Z,100.00
2023-09-27T21:35:04.913Z,100.00
2023-09-27T21:38:11.864Z,100.00
2023-09-27T21:41:17.847Z,100.00
2023-09-27T21:44:25.505Z,100.00
2023-09-27T21:47:42.911Z,100.00
2023-09-27T21:50:50.837Z,100.00
2023-09-27T21:54:03.944Z,100.00
2023-09-27T21:57:08.064Z,100.00
2023-09-27T22:00:21.404Z,100.00
2023-09-27T22:03:30.739Z,100.00
2023-09-27T22:06:36.465Z,100.00
2023-09-27T22:09:46.623Z,100.00
2023-09-27T22:12:56.066Z,100.00
2023-09-27T22:16:15.007Z,100.00
2023-09-27T22:19:21.183Z,100.00
2023-09-27T22:22:28.818Z,100.00
2023-09-27T22:25:32.328Z,100.00
2023-09-27T22:28:45.508Z,100.00
2023-09-27T22:31:49.203Z,100.00
2023-09-27T22:34:54.095Z,100.00
2023-09-27T22:37:58.416Z,100.00
2023-09-27T22:41:20.018Z,100.00
2023-09-27T22:44:28.782Z,100.00
2023-09-27T22:47:39.769Z,100.00
2023-09-27T22:50:52.999Z,100.00
2023-09-27T22:54:07.853Z,100.00
2023-09-27T22:57:13.087Z,100.00
2023-09-27T23:00:25.275Z,100.00
2023-09-27T23:03:35.495Z,100.00
2023-09-27T23:06:41.606Z,100.00
2023-09-27T23:10:06.368Z,100.00
2023-09-27T23:13:30.695Z,100.00
2023-09-27T23:16:49.189Z,100.00
2023-09-27T23:20:02.344Z,100.00
2023-09-27T23:23:19.917Z,100.00
2023-09-27T23:27:03.117Z,100.00
2023-09-27T23:30:14.771Z,100.00
2023-09-27T23:33:18.842Z,100.00
2023-09-27T23:36:25.891Z,100.00
2023-09-27T23:39:29.682Z,100.00
2023-09-27T23:42:36.588Z,100.00
2023-09-27T23:45:40.651Z,100.00
2023-09-27T23:48:44.193Z,100.00
2023-09-27T23:51:55.093Z,100.00
2023-09-27T23:55:09.015Z,100.00
2023-09-27T23:58:17.465Z,100.00
